Time;durP1;ratioP1;P1;durP2;ratioP2;P2;SDS_P1;SDS_P2;PMS_P1;PMS_P2;Temp;Humidity;BMP_temperature;BMP_pressure;BME280_temperature;BME280_humidity;BME280_pressure;Samples;Min_cycle;Max_cycle;Signal;HPM_P1;HPM_P2
2021/12/03 06:45:45;;;;;;;17.17;11.73;;;;;;;;;;5009128;28;20432;-80
2021/12/03 06:48:12;;;;;;;17.53;12.13;;;;;;;;;;4978810;28;20435;-80
2021/12/03 06:50:38;;;;;;;16.67;11.57;;;;;;;;;;4987020;28;20460;-80
2021/12/03 06:53:13;;;;;;;18.43;12.60;;;;;;;;;;4993885;28;20506;-80
2021/12/03 06:55:57;;;;;;;20.13;14.23;;;;;;;;;;4995538;28;21098;-81
2021/12/03 06:58:24;;;;;;;14.57;11.47;;;;;;;;;;4978819;28;21307;-80
2021/12/03 07:00:51;;;;;;;14.80;10.67;;;;;;;;;;4980520;28;20472;-80
2021/12/03 07:03:17;;;;;;;16.33;10.63;;;;;;;;;;4978853;28;20507;-80
2021/12/03 07:05:44;;;;;;;13.00;9.23;;;;;;;;;;4993226;28;21781;-80
2021/12/03 07:08:10;;;;;;;13.17;9.67;;;;;;;;;;4994254;28;20501;-80
2021/12/03 07:10:36;;;;;;;17.07;10.80;;;;;;;;;;4993558;28;21204;-80
2021/12/03 07:13:03;;;;;;;11.53;9.03;;;;;;;;;;4981096;28;20422;-80
2021/12/03 07:15:29;;;;;;;10.97;8.40;;;;;;;;;;4983626;28;20417;-80
2021/12/03 07:17:56;;;;;;;9.57;7.00;;;;;;;;;;4980152;28;20416;-80
2021/12/03 07:20:23;;;;;;;9.40;7.23;;;;;;;;;;4995041;28;20842;-80
2021/12/03 07:22:50;;;;;;;11.23;8.07;;;;;;;;;;4997460;28;20518;-80
2021/12/03 07:25:16;;;;;;;7.73;6.40;;;;;;;;;;4983768;28;20420;-80
2021/12/03 07:27:42;;;;;;;10.77;6.97;;;;;;;;;;4999773;28;20420;-80
2021/12/03 07:30:10;;;;;;;8.97;5.37;;;;;;;;;;4983726;28;20437;-80
2021/12/03 07:32:42;;;;;;;7.53;6.03;;;;;;;;;;4982873;28;20483;-80
2021/12/03 07:35:09;;;;;;;9.63;6.27;;;;;;;;;;4986201;28;21003;-81
2021/12/03 07:37:35;;;;;;;7.63;5.30;;;;;;;;;;4981066;28;20432;-80
2021/12/03 07:40:05;;;;;;;6.97;4.60;;;;;;;;;;4978194;28;20424;-81
2021/12/03 07:42:32;;;;;;;6.13;4.90;;;;;;;;;;4978904;28;20428;-81
2021/12/03 07:44:58;;;;;;;7.57;5.97;;;;;;;;;;4979733;28;20479;-80
2021/12/03 07:47:24;;;;;;;8.67;5.83;;;;;;;;;;4981177;28;20436;-80
2021/12/03 07:49:51;;;;;;;8.57;6.60;;;;;;;;;;4987053;28;20449;-81
2021/12/03 07:52:19;;;;;;;12.20;7.87;;;;;;;;;;4977183;28;20424;-80
2021/12/03 07:54:45;;;;;;;9.83;6.67;;;;;;;;;;4980864;28;20417;-80
2021/12/03 07:57:11;;;;;;;11.10;8.23;;;;;;;;;;4995149;28;20428;-80
2021/12/03 07:59:38;;;;;;;8.43;6.33;;;;;;;;;;4982632;28;20417;-81
2021/12/03 08:02:04;;;;;;;9.30;6.80;;;;;;;;;;4984274;28;20420;-81
2021/12/03 08:04:30;;;;;;;10.43;6.90;;;;;;;;;;4994425;28;20427;-80
2021/12/03 08:06:56;;;;;;;9.77;6.27;;;;;;;;;;4983031;28;20420;-80
2021/12/03 08:09:23;;;;;;;9.47;6.77;;;;;;;;;;4995808;28;20559;-80
2021/12/03 08:11:50;;;;;;;16.87;8.17;;;;;;;;;;4995356;28;20420;-79
2021/12/03 08:14:16;;;;;;;10.97;7.47;;;;;;;;;;4980940;28;20451;-80
2021/12/03 08:16:43;;;;;;;11.00;8.03;;;;;;;;;;4994731;28;20432;-79
2021/12/03 08:19:09;;;;;;;13.03;6.90;;;;;;;;;;4996454;28;20437;-79
2021/12/03 08:21:35;;;;;;;8.03;5.87;;;;;;;;;;4983071;28;20463;-79
2021/12/03 08:24:01;;;;;;;7.60;5.97;;;;;;;;;;4980909;28;20427;-79
2021/12/03 08:26:28;;;;;;;7.17;5.43;;;;;;;;;;4994293;28;20437;-79
2021/12/03 08:28:54;;;;;;;8.50;6.30;;;;;;;;;;4981240;28;20498;-79
2021/12/03 08:31:20;;;;;;;7.97;6.33;;;;;;;;;;4980539;28;20424;-79
2021/12/03 08:33:47;;;;;;;11.63;8.73;;;;;;;;;;4982236;28;20443;-79
2021/12/03 08:36:13;;;;;;;12.87;9.77;;;;;;;;;;4981761;28;20408;-79
2021/12/03 08:38:39;;;;;;;13.27;9.53;;;;;;;;;;4982541;28;20428;-79
2021/12/03 08:41:06;;;;;;;14.67;10.93;;;;;;;;;;4999281;28;21184;-79
2021/12/03 08:43:32;;;;;;;13.37;10.77;;;;;;;;;;4985245;28;20421;-79
2021/12/03 08:46:07;;;;;;;13.80;10.80;;;;;;;;;;4983404;28;20408;-79
2021/12/03 08:48:37;;;;;;;14.33;10.07;;;;;;;;;;4996874;28;20543;-79
2021/12/03 08:56:21;;;;;;;16.60;13.53;;;;;;;;;;4985482;28;20420;-80
2021/12/03 08:58:47;;;;;;;21.23;16.63;;;;;;;;;;4986764;28;21011;-80
2021/12/03 09:01:14;;;;;;;20.53;16.03;;;;;;;;;;4972940;28;20888;-79
2021/12/03 09:03:40;;;;;;;23.90;19.77;;;;;;;;;;5017047;28;20428;-80
2021/12/03 09:06:06;;;;;;;24.33;18.70;;;;;;;;;;5000596;28;20887;-79
2021/12/03 09:08:33;;;;;;;22.77;17.93;;;;;;;;;;4985020;28;20435;-79
2021/12/03 09:10:59;;;;;;;22.67;18.23;;;;;;;;;;5001770;28;20427;-80
2021/12/03 09:13:25;;;;;;;18.10;15.50;;;;;;;;;;4984729;28;20504;-79
2021/12/03 09:15:59;;;;;;;24.50;19.20;;;;;;;;;;5003940;28;20431;-79
2021/12/03 09:18:30;;;;;;;22.17;17.97;;;;;;;;;;4988893;28;20412;-79
2021/12/03 09:26:05;;;;;;;29.93;22.73;;;;;;;;;;4989146;28;20591;-80
2021/12/03 09:28:32;;;;;;;29.07;22.80;;;;;;;;;;4985144;28;20411;-79
2021/12/03 09:30:58;;;;;;;26.80;21.87;;;;;;;;;;5000733;28;21051;-79
2021/12/03 09:33:27;;;;;;;28.47;22.73;;;;;;;;;;5004719;28;21161;-80
2021/12/03 09:35:56;;;;;;;25.93;21.23;;;;;;;;;;4988518;28;20439;-79
2021/12/03 09:38:24;;;;;;;27.23;22.50;;;;;;;;;;5017249;28;20452;-79
2021/12/03 09:40:51;;;;;;;29.90;23.87;;;;;;;;;;4984337;28;21414;-79
2021/12/03 09:43:17;;;;;;;29.93;22.77;;;;;;;;;;4987477;28;20479;-80
2021/12/03 09:45:58;;;;;;;28.13;22.40;;;;;;;;;;4986250;28;20412;-79
2021/12/03 09:51:17;;;;;;;28.17;22.97;;;;;;;;;;4980498;28;21540;-79
2021/12/03 09:56:12;;;;;;;30.70;24.27;;;;;;;;;;4986565;28;21017;-79
2021/12/03 10:01:16;;;;;;;36.73;27.17;;;;;;;;;;4986989;28;20408;-79
2021/12/03 10:12:23;;;;;;;32.60;26.83;;;;;;;;;;4988647;28;21427;-79
2021/12/03 10:15:04;;;;;;;33.10;25.67;;;;;;;;;;4986174;28;20661;-78
2021/12/03 10:28:56;;;;;;;35.20;26.93;;;;;;;;;;4982505;28;20457;-78
2021/12/03 10:39:25;;;;;;;34.13;25.97;;;;;;;;;;4984255;28;20514;-78
2021/12/03 10:50:13;;;;;;;31.80;25.00;;;;;;;;;;4976664;28;20452;-78
2021/12/03 10:52:56;;;;;;;31.47;23.60;;;;;;;;;;4982210;28;20496;-78
2021/12/03 11:01:45;;;;;;;31.03;23.90;;;;;;;;;;4983653;28;20408;-79
2021/12/03 11:16:04;;;;;;;27.17;21.20;;;;;;;;;;4983419;28;21035;-78
2021/12/03 11:56:58;;;;;;;23.17;18.27;;;;;;;;;;4985862;28;20403;-80
2021/12/03 14:07:41;;;;;;;21.40;16.73;;;;;;;;;;4982794;28;20542;-85
2021/12/03 14:56:25;;;;;;;18.23;13.87;;;;;;;;;;4986246;28;20430;-82
2021/12/03 14:59:08;;;;;;;20.43;14.47;;;;;;;;;;4986488;28;20408;-80
2021/12/03 15:01:53;;;;;;;17.80;13.67;;;;;;;;;;5014013;28;21317;-80
2021/12/03 15:04:51;;;;;;;20.57;14.43;;;;;;;;;;5001196;28;21432;-81
2021/12/03 15:07:24;;;;;;;22.90;15.17;;;;;;;;;;4985319;28;21208;-80
2021/12/03 15:09:53;;;;;;;20.87;14.60;;;;;;;;;;4991078;28;21668;-81
2021/12/03 15:36:10;;;;;;;21.10;14.77;;;;;;;;;;4979524;28;20437;-81
2021/12/03 16:08:22;;;;;;;22.13;16.67;;;;;;;;;;4983092;28;20424;-80
2021/12/03 16:53:40;;;;;;;35.37;22.93;;;;;;;;;;4976785;28;20523;-79
2021/12/03 16:56:10;;;;;;;33.40;21.63;;;;;;;;;;4975459;28;20420;-78
2021/12/03 16:58:37;;;;;;;37.00;22.80;;;;;;;;;;4977267;28;20447;-78
2021/12/03 17:03:57;;;;;;;36.13;24.20;;;;;;;;;;4976721;28;20432;-80
2021/12/03 17:12:14;;;;;;;64.13;32.17;;;;;;;;;;4981475;28;20483;-79
2021/12/03 17:50:08;;;;;;;37.17;24.70;;;;;;;;;;4980472;28;21496;-78
2021/12/03 17:57:56;;;;;;;34.67;24.23;;;;;;;;;;4992521;28;20424;-80
2021/12/03 18:00:31;;;;;;;38.03;23.93;;;;;;;;;;5018147;28;20425;-80
2021/12/03 18:03:06;;;;;;;40.83;26.70;;;;;;;;;;5004396;28;20435;-79
2021/12/03 18:58:59;;;;;;;90.10;63.83;;;;;;;;;;4983374;28;20452;-79
2021/12/03 19:01:30;;;;;;;103.93;66.83;;;;;;;;;;4986247;28;20502;-79
2021/12/03 19:06:46;;;;;;;88.80;59.53;;;;;;;;;;4986487;28;20425;-80
2021/12/03 19:11:45;;;;;;;83.03;54.57;;;;;;;;;;4986539;28;20432;-80
2021/12/03 19:14:12;;;;;;;68.73;48.80;;;;;;;;;;4984756;28;20424;-79
2021/12/03 19:16:38;;;;;;;73.53;48.03;;;;;;;;;;4999593;28;20416;-78
2021/12/03 19:19:05;;;;;;;67.07;44.73;;;;;;;;;;4985652;28;20439;-78
2021/12/03 19:21:38;;;;;;;62.93;43.13;;;;;;;;;;4982786;28;20421;-79
2021/12/03 19:24:05;;;;;;;59.77;39.33;;;;;;;;;;4984029;28;20431;-79
2021/12/03 19:26:33;;;;;;;54.13;38.27;;;;;;;;;;4981618;28;20437;-79
2021/12/03 19:29:00;;;;;;;52.80;38.50;;;;;;;;;;4983435;28;20499;-79
2021/12/03 19:31:27;;;;;;;61.57;43.57;;;;;;;;;;4981301;28;20921;-79
2021/12/03 19:33:53;;;;;;;56.23;40.77;;;;;;;;;;4982235;28;21168;-79
2021/12/03 19:36:24;;;;;;;63.03;45.17;;;;;;;;;;4995320;28;21039;-78
2021/12/03 19:38:51;;;;;;;61.03;42.50;;;;;;;;;;5010590;28;20418;-78
2021/12/03 19:43:57;;;;;;;68.17;46.83;;;;;;;;;;4975580;28;20438;-78
2021/12/03 19:46:46;;;;;;;58.30;42.83;;;;;;;;;;4978584;28;20476;-78
2021/12/03 19:51:48;;;;;;;59.90;42.03;;;;;;;;;;4976673;28;20421;-78
2021/12/03 19:54:17;;;;;;;53.97;38.20;;;;;;;;;;4992559;28;20455;-78
2021/12/03 19:56:44;;;;;;;53.67;36.83;;;;;;;;;;4976485;28;20523;-78
2021/12/03 19:59:10;;;;;;;59.03;40.80;;;;;;;;;;4977350;28;20895;-78
2021/12/03 20:01:37;;;;;;;48.77;35.53;;;;;;;;;;4988680;28;20429;-78
2021/12/03 20:04:04;;;;;;;48.17;34.53;;;;;;;;;;4979138;28;21264;-79
2021/12/03 20:06:30;;;;;;;48.23;36.37;;;;;;;;;;4978602;28;20505;-78
2021/12/03 20:09:02;;;;;;;48.20;35.50;;;;;;;;;;4980311;28;20419;-78
2021/12/03 20:11:38;;;;;;;50.90;35.43;;;;;;;;;;4975528;28;20423;-78
2021/12/03 20:14:06;;;;;;;52.43;35.80;;;;;;;;;;4981464;28;20411;-79
2021/12/03 20:19:08;;;;;;;48.43;34.83;;;;;;;;;;4983914;28;20629;-78
2021/12/03 20:21:38;;;;;;;48.57;34.47;;;;;;;;;;4993077;28;20420;-78
2021/12/03 20:29:37;;;;;;;41.73;29.13;;;;;;;;;;4975966;28;20529;-78
2021/12/03 20:37:16;;;;;;;43.37;31.13;;;;;;;;;;4980339;28;20451;-79
2021/12/03 20:39:43;;;;;;;41.73;29.77;;;;;;;;;;4984011;28;20479;-79
2021/12/03 20:42:20;;;;;;;36.77;27.87;;;;;;;;;;4981745;28;20545;-79
2021/12/03 20:47:36;;;;;;;34.83;25.93;;;;;;;;;;4980397;28;20436;-79
2021/12/03 21:08:56;;;;;;;37.97;28.27;;;;;;;;;;4981450;28;20429;-79
2021/12/03 21:11:27;;;;;;;41.87;27.57;;;;;;;;;;4992701;28;20563;-79
2021/12/03 21:13:59;;;;;;;32.70;24.87;;;;;;;;;;4982186;28;20421;-79
2021/12/03 21:24:05;;;;;;;36.17;24.70;;;;;;;;;;4985308;28;20409;-80
2021/12/03 21:26:32;;;;;;;32.37;23.10;;;;;;;;;;4982074;28;20405;-80
2021/12/03 21:29:10;;;;;;;36.00;25.10;;;;;;;;;;4983224;28;20424;-79
2021/12/03 21:31:48;;;;;;;29.23;23.10;;;;;;;;;;4989524;28;20427;-81
2021/12/03 21:42:16;;;;;;;25.63;18.53;;;;;;;;;;4988165;28;20428;-79
2021/12/03 21:44:42;;;;;;;25.87;18.53;;;;;;;;;;4989204;28;20972;-80
2021/12/03 21:47:08;;;;;;;24.00;18.63;;;;;;;;;;4997543;28;20458;-79
2021/12/03 21:49:34;;;;;;;30.27;20.97;;;;;;;;;;4983692;28;21383;-79
2021/12/03 21:52:00;;;;;;;31.00;20.80;;;;;;;;;;4983035;28;20646;-79
2021/12/03 21:54:26;;;;;;;23.80;18.67;;;;;;;;;;4980021;28;20428;-79
2021/12/03 21:57:05;;;;;;;25.17;19.30;;;;;;;;;;4981216;28;20420;-80
2021/12/03 21:59:32;;;;;;;22.63;16.90;;;;;;;;;;4990796;28;20793;-79
2021/12/03 22:01:58;;;;;;;29.70;20.97;;;;;;;;;;4991934;28;20433;-80
2021/12/03 22:04:24;;;;;;;27.13;18.80;;;;;;;;;;4989634;28;21191;-79
2021/12/03 22:06:50;;;;;;;27.30;19.00;;;;;;;;;;4985550;28;20444;-79
2021/12/03 22:09:19;;;;;;;27.67;19.03;;;;;;;;;;4998193;28;20548;-80
2021/12/03 22:11:45;;;;;;;30.07;20.83;;;;;;;;;;4981310;28;20463;-79
2021/12/03 22:14:12;;;;;;;27.40;18.63;;;;;;;;;;4997094;28;20408;-79
2021/12/03 22:16:38;;;;;;;32.07;21.87;;;;;;;;;;4996274;28;22351;-79
2021/12/03 22:19:04;;;;;;;30.67;21.40;;;;;;;;;;4995391;28;20428;-79
2021/12/03 22:21:30;;;;;;;29.93;22.17;;;;;;;;;;4983051;28;20542;-79
2021/12/03 22:23:56;;;;;;;27.77;20.87;;;;;;;;;;4999196;28;20739;-79
2021/12/03 22:26:24;;;;;;;31.47;22.83;;;;;;;;;;4994840;28;20425;-78
2021/12/03 22:28:50;;;;;;;27.63;20.90;;;;;;;;;;4996319;28;20477;-79
2021/12/03 22:31:16;;;;;;;27.93;21.30;;;;;;;;;;4979303;28;21426;-78
2021/12/03 22:33:43;;;;;;;32.50;24.27;;;;;;;;;;4984042;28;21290;-78
2021/12/03 22:36:10;;;;;;;36.80;25.27;;;;;;;;;;4996108;28;20523;-78
2021/12/03 22:38:36;;;;;;;39.13;27.97;;;;;;;;;;4978924;28;20534;-78
2021/12/03 22:41:05;;;;;;;40.13;26.90;;;;;;;;;;4996158;28;20429;-78
2021/12/03 22:43:32;;;;;;;37.97;25.17;;;;;;;;;;4982335;28;20547;-78
2021/12/03 22:46:00;;;;;;;38.40;24.90;;;;;;;;;;4983497;28;21223;-78
2021/12/03 22:51:03;;;;;;;32.90;24.43;;;;;;;;;;4982747;28;20467;-79
2021/12/03 22:53:29;;;;;;;33.57;24.63;;;;;;;;;;4998861;28;21273;-79
2021/12/03 22:55:55;;;;;;;34.50;23.87;;;;;;;;;;5000232;28;21431;-79
2021/12/03 22:58:22;;;;;;;30.60;23.90;;;;;;;;;;4981112;28;21276;-77
2021/12/03 23:00:48;;;;;;;35.17;24.27;;;;;;;;;;4977426;28;20756;-77
2021/12/03 23:03:15;;;;;;;30.93;23.43;;;;;;;;;;4980511;28;20438;-77
2021/12/03 23:05:41;;;;;;;37.20;27.67;;;;;;;;;;4977704;28;20412;-77
2021/12/03 23:08:08;;;;;;;42.17;31.00;;;;;;;;;;4975484;28;20448;-76
2021/12/03 23:10:34;;;;;;;42.57;30.33;;;;;;;;;;4978984;28;20483;-76
2021/12/03 23:13:01;;;;;;;39.77;31.27;;;;;;;;;;4977654;28;21339;-78
2021/12/03 23:15:27;;;;;;;38.70;30.70;;;;;;;;;;4993994;28;21387;-76
2021/12/03 23:17:53;;;;;;;42.03;30.70;;;;;;;;;;4992240;28;20562;-77
2021/12/03 23:20:20;;;;;;;43.23;32.77;;;;;;;;;;4992995;28;21050;-77
2021/12/03 23:22:47;;;;;;;41.20;31.23;;;;;;;;;;4979261;28;20430;-77
2021/12/03 23:25:15;;;;;;;41.07;31.23;;;;;;;;;;4973808;28;21016;-76
2021/12/03 23:27:41;;;;;;;42.57;30.80;;;;;;;;;;4977031;28;20426;-76
2021/12/03 23:30:08;;;;;;;36.30;27.60;;;;;;;;;;4978382;28;20459;-77
2021/12/03 23:32:34;;;;;;;33.80;26.03;;;;;;;;;;4977923;28;20420;-77
2021/12/03 23:35:00;;;;;;;37.17;27.30;;;;;;;;;;4978951;28;20420;-76
2021/12/03 23:37:28;;;;;;;37.97;25.70;;;;;;;;;;4980531;28;20426;-76
2021/12/03 23:39:54;;;;;;;33.87;25.23;;;;;;;;;;4993533;28;20425;-76
2021/12/03 23:42:20;;;;;;;29.37;23.30;;;;;;;;;;4979137;28;20443;-76
2021/12/03 23:44:48;;;;;;;31.93;23.80;;;;;;;;;;4979272;28;20482;-76
2021/12/03 23:47:14;;;;;;;31.83;22.70;;;;;;;;;;5006532;28;20455;-76
2021/12/03 23:49:40;;;;;;;38.50;23.77;;;;;;;;;;4976302;28;21137;-77
2021/12/03 23:52:08;;;;;;;35.67;25.43;;;;;;;;;;4977787;28;20473;-76
2021/12/03 23:54:38;;;;;;;34.87;25.67;;;;;;;;;;4975827;28;20447;-76
2021/12/03 23:57:04;;;;;;;31.77;23.70;;;;;;;;;;4988782;28;20543;-76
2021/12/03 23:59:31;;;;;;;35.33;24.50;;;;;;;;;;4978604;28;20463;-77
